sensor_id;sensor_type;location;lat;lon;timestamp;temperature;humidity
6552;DHT22;3309;48.708;9.290;2023-12-28T00:02:10;0.80;99.90
6552;DHT22;3309;48.708;9.290;2023-12-28T00:04:36;0.90;99.90
6552;DHT22;3309;48.708;9.290;2023-12-28T00:07:03;1.00;99.90
6552;DHT22;3309;48.708;9.290;2023-12-28T00:09:29;0.90;96.10
6552;DHT22;3309;48.708;9.290;2023-12-28T00:11:55;1.10;88.10
6552;DHT22;3309;48.708;9.290;2023-12-28T00:14:21;1.20;24.20
6552;DHT22;3309;48.708;9.290;2023-12-28T00:16:46;1.20;22.40
6552;DHT22;3309;48.708;9.290;2023-12-28T00:19:12;1.20;15.30
6552;DHT22;3309;48.708;9.290;2023-12-28T00:21:37;1.10;4.50
6552;DHT22;3309;48.708;9.290;2023-12-28T00:24:03;1.00;70.10
6552;DHT22;3309;48.708;9.290;2023-12-28T00:26:29;0.90;99.90
6552;DHT22;3309;48.708;9.290;2023-12-28T00:28:54;0.90;99.90
6552;DHT22;3309;48.708;9.290;2023-12-28T00:31:20;0.90;99.90
6552;DHT22;3309;48.708;9.290;2023-12-28T00:33:45;1.00;99.90
6552;DHT22;3309;48.708;9.290;2023-12-28T00:36:11;1.00;99.90
6552;DHT22;3309;48.708;9.290;2023-12-28T00:38:36;1.10;99.60
6552;DHT22;3309;48.708;9.290;2023-12-28T00:41:02;1.00;97.20
6552;DHT22;3309;48.708;9.290;2023-12-28T00:43:28;0.90;99.90
6552;DHT22;3309;48.708;9.290;2023-12-28T00:45:53;1.00;99.90
6552;DHT22;3309;48.708;9.290;2023-12-28T00:48:19;1.00;99.90
6552;DHT22;3309;48.708;9.290;2023-12-28T00:50:44;1.20;65.00
6552;DHT22;3309;48.708;9.290;2023-12-28T00:53:10;1.20;27.30
6552;DHT22;3309;48.708;9.290;2023-12-28T00:55:35;1.10;27.80
6552;DHT22;3309;48.708;9.290;2023-12-28T00:58:01;1.10;42.00
6552;DHT22;3309;48.708;9.290;2023-12-28T01:00:26;1.10;27.90
6552;DHT22;3309;48.708;9.290;2023-12-28T01:02:52;0.90;27.70
6552;DHT22;3309;48.708;9.290;2023-12-28T01:05:17;1.00;54.20
6552;DHT22;3309;48.708;9.290;2023-12-28T01:07:43;1.00;56.60
6552;DHT22;3309;48.708;9.290;2023-12-28T01:10:09;1.00;29.50
6552;DHT22;3309;48.708;9.290;2023-12-28T01:12:34;0.90;21.60
6552;DHT22;3309;48.708;9.290;2023-12-28T01:15:00;0.90;14.80
6552;DHT22;3309;48.708;9.290;2023-12-28T01:17:25;0.90;23.60
6552;DHT22;3309;48.708;9.290;2023-12-28T01:19:51;0.90;18.50
6552;DHT22;3309;48.708;9.290;2023-12-28T01:22:16;0.70;51.80
6552;DHT22;3309;48.708;9.290;2023-12-28T01:24:45;0.60;92.60
6552;DHT22;3309;48.708;9.290;2023-12-28T01:27:11;0.50;99.90
6552;DHT22;3309;48.708;9.290;2023-12-28T01:29:36;0.50;99.90
6552;DHT22;3309;48.708;9.290;2023-12-28T01:32:03;0.60;99.90
6552;DHT22;3309;48.708;9.290;2023-12-28T01:34:29;0.50;99.90
6552;DHT22;3309;48.708;9.290;2023-12-28T01:36:54;0.60;99.90
6552;DHT22;3309;48.708;9.290;2023-12-28T01:39:20;0.60;99.90
6552;DHT22;3309;48.708;9.290;2023-12-28T01:41:46;0.60;99.90
6552;DHT22;3309;48.708;9.290;2023-12-28T01:44:11;0.50;99.90
6552;DHT22;3309;48.708;9.290;2023-12-28T01:46:37;0.60;99.90
6552;DHT22;3309;48.708;9.290;2023-12-28T01:49:04;0.70;99.90
6552;DHT22;3309;48.708;9.290;2023-12-28T01:51:30;0.80;99.90
6552;DHT22;3309;48.708;9.290;2023-12-28T01:53:57;0.80;96.00
6552;DHT22;3309;48.708;9.290;2023-12-28T01:56:23;0.70;94.90
6552;DHT22;3309;48.708;9.290;2023-12-28T01:58:50;0.70;97.80
6552;DHT22;3309;48.708;9.290;2023-12-28T02:01:17;0.50;99.90
6552;DHT22;3309;48.708;9.290;2023-12-28T02:03:44;0.40;99.90
6552;DHT22;3309;48.708;9.290;2023-12-28T02:06:10;0.40;99.90
6552;DHT22;3309;48.708;9.290;2023-12-28T02:08:36;0.40;99.90
6552;DHT22;3309;48.708;9.290;2023-12-28T02:11:01;0.40;99.90
6552;DHT22;3309;48.708;9.290;2023-12-28T02:13:27;0.40;99.90
6552;DHT22;3309;48.708;9.290;2023-12-28T02:16:11;0.40;99.90
6552;DHT22;3309;48.708;9.290;2023-12-28T02:18:42;0.40;99.90
6552;DHT22;3309;48.708;9.290;2023-12-28T02:21:08;0.50;99.90
6552;DHT22;3309;48.708;9.290;2023-12-28T02:23:34;0.70;99.90
6552;DHT22;3309;48.708;9.290;2023-12-28T02:26:00;0.80;90.40
6552;DHT22;3309;48.708;9.290;2023-12-28T02:28:26;0.50;79.20
6552;DHT22;3309;48.708;9.290;2023-12-28T02:30:52;0.40;99.70
6552;DHT22;3309;48.708;9.290;2023-12-28T02:35:51;0.70;99.90
6552;DHT22;3309;48.708;9.290;2023-12-28T02:38:18;0.70;76.30
6552;DHT22;3309;48.708;9.290;2023-12-28T02:40:45;0.50;80.60
6552;DHT22;3309;48.708;9.290;2023-12-28T02:43:12;0.40;99.90
6552;DHT22;3309;48.708;9.290;2023-12-28T02:45:38;0.40;99.90
6552;DHT22;3309;48.708;9.290;2023-12-28T02:48:04;0.40;99.90
6552;DHT22;3309;48.708;9.290;2023-12-28T02:50:31;0.40;99.90
6552;DHT22;3309;48.708;9.290;2023-12-28T02:52:57;0.40;99.90
6552;DHT22;3309;48.708;9.290;2023-12-28T02:55:23;0.40;99.90
6552;DHT22;3309;48.708;9.290;2023-12-28T02:57:50;0.50;99.90
6552;DHT22;3309;48.708;9.290;2023-12-28T03:00:16;0.50;99.90
6552;DHT22;3309;48.708;9.290;2023-12-28T03:02:42;0.40;99.90
6552;DHT22;3309;48.708;9.290;2023-12-28T03:05:08;0.50;99.90
6552;DHT22;3309;48.708;9.290;2023-12-28T03:07:34;0.70;99.90
6552;DHT22;3309;48.708;9.290;2023-12-28T03:10:00;0.90;99.90
6552;DHT22;3309;48.708;9.290;2023-12-28T03:12:25;1.10;28.40
6552;DHT22;3309;48.708;9.290;2023-12-28T03:14:51;1.10;1.00
6552;DHT22;3309;48.708;9.290;2023-12-28T03:17:17;1.10;1.00
6552;DHT22;3309;48.708;9.290;2023-12-28T03:19:42;1.30;1.00
6552;DHT22;3309;48.708;9.290;2023-12-28T03:22:08;1.40;1.00
6552;DHT22;3309;48.708;9.290;2023-12-28T03:24:33;1.50;1.00
6552;DHT22;3309;48.708;9.290;2023-12-28T03:26:59;1.60;1.00
6552;DHT22;3309;48.708;9.290;2023-12-28T03:29:25;1.60;1.00
6552;DHT22;3309;48.708;9.290;2023-12-28T03:31:50;1.70;1.00
6552;DHT22;3309;48.708;9.290;2023-12-28T03:34:16;1.90;1.00
6552;DHT22;3309;48.708;9.290;2023-12-28T03:36:41;1.80;1.00
6552;DHT22;3309;48.708;9.290;2023-12-28T03:39:08;1.70;1.00
6552;DHT22;3309;48.708;9.290;2023-12-28T03:41:33;1.50;1.00
6552;DHT22;3309;48.708;9.290;2023-12-28T03:43:59;1.50;1.00
6552;DHT22;3309;48.708;9.290;2023-12-28T03:46:24;1.50;1.00
6552;DHT22;3309;48.708;9.290;2023-12-28T03:48:52;1.30;1.00
6552;DHT22;3309;48.708;9.290;2023-12-28T03:51:17;1.30;1.00
6552;DHT22;3309;48.708;9.290;2023-12-28T03:53:43;1.20;1.00
6552;DHT22;3309;48.708;9.290;2023-12-28T03:56:24;1.30;1.00
6552;DHT22;3309;48.708;9.290;2023-12-28T03:58:50;1.50;1.00
6552;DHT22;3309;48.708;9.290;2023-12-28T04:01:22;1.50;1.00
6552;DHT22;3309;48.708;9.290;2023-12-28T04:03:48;1.20;1.00
6552;DHT22;3309;48.708;9.290;2023-12-28T04:06:14;1.10;1.00
6552;DHT22;3309;48.708;9.290;2023-12-28T04:08:42;1.00;12.20
6552;DHT22;3309;48.708;9.290;2023-12-28T04:11:09;1.10;12.00
6552;DHT22;3309;48.708;9.290;2023-12-28T04:13:35;1.10;12.30
6552;DHT22;3309;48.708;9.290;2023-12-28T04:16:02;1.10;15.70
6552;DHT22;3309;48.708;9.290;2023-12-28T04:18:28;1.20;12.80
6552;DHT22;3309;48.708;9.290;2023-12-28T04:20:54;1.70;1.00
6552;DHT22;3309;48.708;9.290;2023-12-28T04:23:20;2.00;1.00
6552;DHT22;3309;48.708;9.290;2023-12-28T04:25:45;2.20;1.00
6552;DHT22;3309;48.708;9.290;2023-12-28T04:28:11;2.40;1.00
6552;DHT22;3309;48.708;9.290;2023-12-28T04:30:36;2.20;1.00
6552;DHT22;3309;48.708;9.290;2023-12-28T04:33:02;2.30;1.00
6552;DHT22;3309;48.708;9.290;2023-12-28T04:35:28;2.60;99.90
6552;DHT22;3309;48.708;9.290;2023-12-28T04:37:54;2.60;99.90
6552;DHT22;3309;48.708;9.290;2023-12-28T04:40:19;2.90;1.00
6552;DHT22;3309;48.708;9.290;2023-12-28T04:42:46;3.00;1.00
6552;DHT22;3309;48.708;9.290;2023-12-28T04:45:11;2.90;1.00
6552;DHT22;3309;48.708;9.290;2023-12-28T04:47:37;3.20;99.90
6552;DHT22;3309;48.708;9.290;2023-12-28T04:50:04;3.40;99.90
6552;DHT22;3309;48.708;9.290;2023-12-28T04:52:30;3.50;1.00
6552;DHT22;3309;48.708;9.290;2023-12-28T04:54:56;3.50;99.90
6552;DHT22;3309;48.708;9.290;2023-12-28T04:57:22;3.60;1.00
6552;DHT22;3309;48.708;9.290;2023-12-28T04:59:49;3.10;99.90
6552;DHT22;3309;48.708;9.290;2023-12-28T05:02:15;3.10;1.00
6552;DHT22;3309;48.708;9.290;2023-12-28T05:04:41;3.30;99.90
6552;DHT22;3309;48.708;9.290;2023-12-28T05:07:06;3.50;1.00
6552;DHT22;3309;48.708;9.290;2023-12-28T05:09:32;3.50;1.00
6552;DHT22;3309;48.708;9.290;2023-12-28T05:11:58;3.60;1.00
6552;DHT22;3309;48.708;9.290;2023-12-28T05:14:23;3.70;99.90
6552;DHT22;3309;48.708;9.290;2023-12-28T05:16:49;3.60;99.90
6552;DHT22;3309;48.708;9.290;2023-12-28T05:19:14;3.50;1.00
6552;DHT22;3309;48.708;9.290;2023-12-28T05:21:40;3.40;38.90
6552;DHT22;3309;48.708;9.290;2023-12-28T05:24:06;3.50;1.00
6552;DHT22;3309;48.708;9.290;2023-12-28T05:26:31;3.80;19.30
6552;DHT22;3309;48.708;9.290;2023-12-28T05:28:57;4.00;99.90
6552;DHT22;3309;48.708;9.290;2023-12-28T05:31:22;3.80;1.00
6552;DHT22;3309;48.708;9.290;2023-12-28T05:33:48;4.10;1.00
6552;DHT22;3309;48.708;9.290;2023-12-28T05:36:13;4.80;1.00
6552;DHT22;3309;48.708;9.290;2023-12-28T05:38:39;5.00;99.90
6552;DHT22;3309;48.708;9.290;2023-12-28T05:41:05;5.20;99.90
6552;DHT22;3309;48.708;9.290;2023-12-28T05:43:30;5.10;99.90
6552;DHT22;3309;48.708;9.290;2023-12-28T05:45:56;5.10;99.90
6552;DHT22;3309;48.708;9.290;2023-12-28T05:48:21;5.20;1.00
6552;DHT22;3309;48.708;9.290;2023-12-28T05:50:47;5.40;99.90
6552;DHT22;3309;48.708;9.290;2023-12-28T05:53:12;5.50;99.90
6552;DHT22;3309;48.708;9.290;2023-12-28T05:55:43;5.80;99.90
6552;DHT22;3309;48.708;9.290;2023-12-28T05:58:12;5.60;1.00
6552;DHT22;3309;48.708;9.290;2023-12-28T06:00:37;5.60;99.90
6552;DHT22;3309;48.708;9.290;2023-12-28T06:03:04;5.50;99.90
6552;DHT22;3309;48.708;9.290;2023-12-28T06:05:30;5.60;99.90
6552;DHT22;3309;48.708;9.290;2023-12-28T06:07:57;5.80;99.90
6552;DHT22;3309;48.708;9.290;2023-12-28T06:10:23;5.90;81.10
6552;DHT22;3309;48.708;9.290;2023-12-28T06:12:49;5.50;1.00
6552;DHT22;3309;48.708;9.290;2023-12-28T06:15:15;5.10;99.90
6552;DHT22;3309;48.708;9.290;2023-12-28T06:17:40;5.10;1.00
6552;DHT22;3309;48.708;9.290;2023-12-28T06:20:06;5.30;99.90
6552;DHT22;3309;48.708;9.290;2023-12-28T06:22:33;5.30;1.00
6552;DHT22;3309;48.708;9.290;2023-12-28T06:25:01;5.30;1.00
6552;DHT22;3309;48.708;9.290;2023-12-28T06:27:27;5.30;99.90
6552;DHT22;3309;48.708;9.290;2023-12-28T06:29:53;5.60;99.90
6552;DHT22;3309;48.708;9.290;2023-12-28T06:32:18;5.70;99.90
6552;DHT22;3309;48.708;9.290;2023-12-28T06:34:44;5.70;99.90
6552;DHT22;3309;48.708;9.290;2023-12-28T06:37:09;5.70;99.90
6552;DHT22;3309;48.708;9.290;2023-12-28T06:39:35;5.50;99.90
6552;DHT22;3309;48.708;9.290;2023-12-28T06:42:00;5.50;99.90
6552;DHT22;3309;48.708;9.290;2023-12-28T06:44:26;5.70;1.00
6552;DHT22;3309;48.708;9.290;2023-12-28T06:46:51;5.90;1.00
6552;DHT22;3309;48.708;9.290;2023-12-28T06:49:17;6.10;99.90
6552;DHT22;3309;48.708;9.290;2023-12-28T06:51:42;6.30;99.90
6552;DHT22;3309;48.708;9.290;2023-12-28T06:54:10;6.50;99.90
6552;DHT22;3309;48.708;9.290;2023-12-28T06:56:36;6.70;20.00
6552;DHT22;3309;48.708;9.290;2023-12-28T06:59:02;6.90;99.90
6552;DHT22;3309;48.708;9.290;2023-12-28T07:01:27;6.70;97.90
6552;DHT22;3309;48.708;9.290;2023-12-28T07:03:53;6.70;98.70
6552;DHT22;3309;48.708;9.290;2023-12-28T07:06:18;6.90;68.30
6552;DHT22;3309;48.708;9.290;2023-12-28T07:08:44;6.90;99.90
6552;DHT22;3309;48.708;9.290;2023-12-28T07:11:10;6.90;99.90
6552;DHT22;3309;48.708;9.290;2023-12-28T07:13:37;6.90;99.90
6552;DHT22;3309;48.708;9.290;2023-12-28T07:16:02;6.80;1.00
6552;DHT22;3309;48.708;9.290;2023-12-28T07:18:28;6.90;99.90
6552;DHT22;3309;48.708;9.290;2023-12-28T07:20:53;7.20;99.90
6552;DHT22;3309;48.708;9.290;2023-12-28T07:23:19;7.20;99.90
6552;DHT22;3309;48.708;9.290;2023-12-28T07:25:45;7.30;99.90
6552;DHT22;3309;48.708;9.290;2023-12-28T07:28:10;7.30;66.50
6552;DHT22;3309;48.708;9.290;2023-12-28T07:30:37;7.40;72.00
6552;DHT22;3309;48.708;9.290;2023-12-28T07:33:03;7.30;1.00
6552;DHT22;3309;48.708;9.290;2023-12-28T07:35:28;7.20;1.00
6552;DHT22;3309;48.708;9.290;2023-12-28T07:37:54;7.20;1.00
6552;DHT22;3309;48.708;9.290;2023-12-28T07:40:20;7.20;1.00
6552;DHT22;3309;48.708;9.290;2023-12-28T07:42:45;7.30;1.00
6552;DHT22;3309;48.708;9.290;2023-12-28T07:45:11;7.20;1.00
6552;DHT22;3309;48.708;9.290;2023-12-28T07:47:36;7.20;1.00
6552;DHT22;3309;48.708;9.290;2023-12-28T07:50:02;7.00;1.00
6552;DHT22;3309;48.708;9.290;2023-12-28T07:52:29;7.00;99.90
6552;DHT22;3309;48.708;9.290;2023-12-28T07:54:54;7.00;1.00
6552;DHT22;3309;48.708;9.290;2023-12-28T07:57:20;6.90;99.90
6552;DHT22;3309;48.708;9.290;2023-12-28T07:59:46;6.80;1.00
6552;DHT22;3309;48.708;9.290;2023-12-28T08:02:12;6.90;99.90
6552;DHT22;3309;48.708;9.290;2023-12-28T08:04:37;7.00;1.00
6552;DHT22;3309;48.708;9.290;2023-12-28T08:07:03;6.90;99.90
6552;DHT22;3309;48.708;9.290;2023-12-28T08:09:30;7.00;1.00
6552;DHT22;3309;48.708;9.290;2023-12-28T08:11:56;7.10;61.10
6552;DHT22;3309;48.708;9.290;2023-12-28T08:14:22;7.00;1.00
6552;DHT22;3309;48.708;9.290;2023-12-28T08:16:47;7.20;1.00
6552;DHT22;3309;48.708;9.290;2023-12-28T08:19:13;6.90;99.90
6552;DHT22;3309;48.708;9.290;2023-12-28T08:21:39;6.60;1.00
6552;DHT22;3309;48.708;9.290;2023-12-28T08:24:07;6.70;1.00
6552;DHT22;3309;48.708;9.290;2023-12-28T08:26:32;6.70;1.00
6552;DHT22;3309;48.708;9.290;2023-12-28T08:28:58;6.80;1.00
6552;DHT22;3309;48.708;9.290;2023-12-28T08:31:24;6.70;1.00
6552;DHT22;3309;48.708;9.290;2023-12-28T08:33:50;6.80;1.00
6552;DHT22;3309;48.708;9.290;2023-12-28T08:36:15;6.80;1.00
6552;DHT22;3309;48.708;9.290;2023-12-28T08:38:43;6.80;1.00
6552;DHT22;3309;48.708;9.290;2023-12-28T08:41:18;6.80;1.00
6552;DHT22;3309;48.708;9.290;2023-12-28T08:43:44;6.70;1.00
6552;DHT22;3309;48.708;9.290;2023-12-28T08:46:09;6.70;1.00
6552;DHT22;3309;48.708;9.290;2023-12-28T08:48:35;6.70;1.00
6552;DHT22;3309;48.708;9.290;2023-12-28T08:51:01;6.80;1.00
6552;DHT22;3309;48.708;9.290;2023-12-28T08:53:26;6.80;1.00
6552;DHT22;3309;48.708;9.290;2023-12-28T08:55:52;6.90;1.00
6552;DHT22;3309;48.708;9.290;2023-12-28T08:58:18;6.90;1.00
6552;DHT22;3309;48.708;9.290;2023-12-28T09:00:43;6.90;1.00
6552;DHT22;3309;48.708;9.290;2023-12-28T09:03:10;6.90;1.00
6552;DHT22;3309;48.708;9.290;2023-12-28T09:05:36;7.10;1.00
6552;DHT22;3309;48.708;9.290;2023-12-28T09:08:02;7.10;1.00
6552;DHT22;3309;48.708;9.290;2023-12-28T09:10:27;7.20;1.00
6552;DHT22;3309;48.708;9.290;2023-12-28T09:12:53;7.30;1.00
6552;DHT22;3309;48.708;9.290;2023-12-28T09:15:18;7.20;1.00
6552;DHT22;3309;48.708;9.290;2023-12-28T09:17:44;7.20;1.00
6552;DHT22;3309;48.708;9.290;2023-12-28T09:20:10;7.20;1.00
6552;DHT22;3309;48.708;9.290;2023-12-28T09:22:37;7.30;1.00
6552;DHT22;3309;48.708;9.290;2023-12-28T09:25:03;7.30;1.00
6552;DHT22;3309;48.708;9.290;2023-12-28T09:27:29;7.30;1.00
6552;DHT22;3309;48.708;9.290;2023-12-28T09:29:54;7.20;1.00
6552;DHT22;3309;48.708;9.290;2023-12-28T09:32:20;7.20;1.00
6552;DHT22;3309;48.708;9.290;2023-12-28T09:34:45;7.20;1.00
6552;DHT22;3309;48.708;9.290;2023-12-28T09:37:11;7.30;1.00
6552;DHT22;3309;48.708;9.290;2023-12-28T09:39:37;7.40;1.00
6552;DHT22;3309;48.708;9.290;2023-12-28T09:42:12;7.30;1.00
6552;DHT22;3309;48.708;9.290;2023-12-28T09:44:40;7.30;1.00
6552;DHT22;3309;48.708;9.290;2023-12-28T09:47:09;7.10;1.00
6552;DHT22;3309;48.708;9.290;2023-12-28T09:49:38;7.10;1.00
6552;DHT22;3309;48.708;9.290;2023-12-28T09:52:04;7.10;1.00
6552;DHT22;3309;48.708;9.290;2023-12-28T09:54:30;7.20;1.00
6552;DHT22;3309;48.708;9.290;2023-12-28T09:56:56;7.30;1.00
6552;DHT22;3309;48.708;9.290;2023-12-28T09:59:23;7.40;1.00
6552;DHT22;3309;48.708;9.290;2023-12-28T10:01:49;7.50;99.90
6552;DHT22;3309;48.708;9.290;2023-12-28T10:04:16;7.60;99.90
6552;DHT22;3309;48.708;9.290;2023-12-28T10:06:42;7.70;99.90
6552;DHT22;3309;48.708;9.290;2023-12-28T10:09:07;7.80;99.90
6552;DHT22;3309;48.708;9.290;2023-12-28T10:11:33;7.90;99.90
6552;DHT22;3309;48.708;9.290;2023-12-28T10:13:59;8.00;99.90
6552;DHT22;3309;48.708;9.290;2023-12-28T10:16:24;8.00;99.90
6552;DHT22;3309;48.708;9.290;2023-12-28T10:18:50;8.00;99.90
6552;DHT22;3309;48.708;9.290;2023-12-28T10:21:15;8.00;99.90
6552;DHT22;3309;48.708;9.290;2023-12-28T10:23:41;8.10;99.90
6552;DHT22;3309;48.708;9.290;2023-12-28T10:26:07;8.20;99.90
6552;DHT22;3309;48.708;9.290;2023-12-28T10:28:34;8.40;99.90
6552;DHT22;3309;48.708;9.290;2023-12-28T10:31:00;8.60;99.90
6552;DHT22;3309;48.708;9.290;2023-12-28T10:33:28;8.60;1.00
6552;DHT22;3309;48.708;9.290;2023-12-28T10:35:59;8.80;1.00
6552;DHT22;3309;48.708;9.290;2023-12-28T10:38:25;9.10;1.00
6552;DHT22;3309;48.708;9.290;2023-12-28T10:40:53;9.00;1.00
6552;DHT22;3309;48.708;9.290;2023-12-28T10:43:20;9.00;1.00
6552;DHT22;3309;48.708;9.290;2023-12-28T10:45:50;9.20;99.90
6552;DHT22;3309;48.708;9.290;2023-12-28T10:48:21;9.50;1.00
6552;DHT22;3309;48.708;9.290;2023-12-28T10:50:52;9.50;1.00
6552;DHT22;3309;48.708;9.290;2023-12-28T11:01:37;10.00;1.00
6552;DHT22;3309;48.708;9.290;2023-12-28T11:04:07;10.10;1.00
6552;DHT22;3309;48.708;9.290;2023-12-28T11:06:36;10.20;1.00
6552;DHT22;3309;48.708;9.290;2023-12-28T11:09:03;10.30;1.00
6552;DHT22;3309;48.708;9.290;2023-12-28T11:11:31;10.30;1.00
6552;DHT22;3309;48.708;9.290;2023-12-28T11:13:59;10.40;1.00
6552;DHT22;3309;48.708;9.290;2023-12-28T11:16:26;10.40;1.00
6552;DHT22;3309;48.708;9.290;2023-12-28T11:18:53;10.40;1.00
6552;DHT22;3309;48.708;9.290;2023-12-28T11:21:20;10.40;1.00
6552;DHT22;3309;48.708;9.290;2023-12-28T11:23:47;10.40;99.90
6552;DHT22;3309;48.708;9.290;2023-12-28T11:26:20;10.40;1.00
6552;DHT22;3309;48.708;9.290;2023-12-28T11:28:46;10.40;99.90
6552;DHT22;3309;48.708;9.290;2023-12-28T11:31:16;10.50;1.00
6552;DHT22;3309;48.708;9.290;2023-12-28T11:33:46;10.60;99.90
6552;DHT22;3309;48.708;9.290;2023-12-28T11:39:01;10.70;40.60
6552;DHT22;3309;48.708;9.290;2023-12-28T11:41:27;10.70;1.00
6552;DHT22;3309;48.708;9.290;2023-12-28T11:43:53;10.70;90.70
6552;DHT22;3309;48.708;9.290;2023-12-28T11:46:21;10.60;99.90
6552;DHT22;3309;48.708;9.290;2023-12-28T11:48:46;10.60;99.90
6552;DHT22;3309;48.708;9.290;2023-12-28T11:51:12;10.60;99.90
6552;DHT22;3309;48.708;9.290;2023-12-28T11:53:38;10.60;99.90
6552;DHT22;3309;48.708;9.290;2023-12-28T11:56:05;10.60;99.90
6552;DHT22;3309;48.708;9.290;2023-12-28T11:58:35;10.60;1.00
6552;DHT22;3309;48.708;9.290;2023-12-28T12:01:01;10.70;99.90
6552;DHT22;3309;48.708;9.290;2023-12-28T12:03:27;10.60;1.00
6552;DHT22;3309;48.708;9.290;2023-12-28T12:05:55;10.60;1.00
6552;DHT22;3309;48.708;9.290;2023-12-28T12:08:22;10.60;1.00
6552;DHT22;3309;48.708;9.290;2023-12-28T12:10:59;10.60;1.00
6552;DHT22;3309;48.708;9.290;2023-12-28T12:13:24;10.50;26.20
6552;DHT22;3309;48.708;9.290;2023-12-28T12:15:51;10.40;1.00
6552;DHT22;3309;48.708;9.290;2023-12-28T12:18:17;10.30;1.00
6552;DHT22;3309;48.708;9.290;2023-12-28T12:20:42;10.20;1.00
6552;DHT22;3309;48.708;9.290;2023-12-28T12:23:08;10.30;1.00
6552;DHT22;3309;48.708;9.290;2023-12-28T12:25:34;10.20;99.90
6552;DHT22;3309;48.708;9.290;2023-12-28T12:27:59;10.20;1.00
6552;DHT22;3309;48.708;9.290;2023-12-28T12:30:25;10.20;1.00
6552;DHT22;3309;48.708;9.290;2023-12-28T12:32:50;10.10;1.00
6552;DHT22;3309;48.708;9.290;2023-12-28T12:35:16;10.20;1.00
6552;DHT22;3309;48.708;9.290;2023-12-28T12:37:43;10.20;1.00
6552;DHT22;3309;48.708;9.290;2023-12-28T12:40:09;10.20;1.00
6552;DHT22;3309;48.708;9.290;2023-12-28T12:42:35;10.20;1.00
6552;DHT22;3309;48.708;9.290;2023-12-28T12:45:01;10.20;1.00
6552;DHT22;3309;48.708;9.290;2023-12-28T12:47:32;10.20;1.00
6552;DHT22;3309;48.708;9.290;2023-12-28T12:49:58;10.10;1.00
6552;DHT22;3309;48.708;9.290;2023-12-28T12:52:25;10.00;99.90
6552;DHT22;3309;48.708;9.290;2023-12-28T12:54:56;10.00;1.00
6552;DHT22;3309;48.708;9.290;2023-12-28T12:57:21;9.90;99.90
6552;DHT22;3309;48.708;9.290;2023-12-28T12:59:47;9.80;99.90
6552;DHT22;3309;48.708;9.290;2023-12-28T13:02:12;9.70;1.00
6552;DHT22;3309;48.708;9.290;2023-12-28T13:04:39;9.70;1.00
6552;DHT22;3309;48.708;9.290;2023-12-28T13:07:04;9.60;99.90
6552;DHT22;3309;48.708;9.290;2023-12-28T13:09:30;9.60;99.90
6552;DHT22;3309;48.708;9.290;2023-12-28T13:11:56;9.60;1.00
6552;DHT22;3309;48.708;9.290;2023-12-28T13:14:22;9.60;99.90
6552;DHT22;3309;48.708;9.290;2023-12-28T13:16:47;9.60;99.90
6552;DHT22;3309;48.708;9.290;2023-12-28T13:19:18;9.60;1.00
6552;DHT22;3309;48.708;9.290;2023-12-28T13:21:43;9.50;99.90
6552;DHT22;3309;48.708;9.290;2023-12-28T13:24:09;9.50;99.90
6552;DHT22;3309;48.708;9.290;2023-12-28T13:26:35;9.50;99.90
6552;DHT22;3309;48.708;9.290;2023-12-28T13:29:00;9.60;1.00
6552;DHT22;3309;48.708;9.290;2023-12-28T13:31:26;9.70;1.00
6552;DHT22;3309;48.708;9.290;2023-12-28T13:33:51;9.80;1.00
6552;DHT22;3309;48.708;9.290;2023-12-28T13:36:17;9.80;1.00
6552;DHT22;3309;48.708;9.290;2023-12-28T13:38:44;9.90;99.90
6552;DHT22;3309;48.708;9.290;2023-12-28T13:41:09;10.00;1.00
6552;DHT22;3309;48.708;9.290;2023-12-28T13:43:35;10.00;99.90
6552;DHT22;3309;48.708;9.290;2023-12-28T13:46:01;10.00;1.00
6552;DHT22;3309;48.708;9.290;2023-12-28T13:48:29;10.00;1.00
6552;DHT22;3309;48.708;9.290;2023-12-28T13:50:55;9.90;1.00
6552;DHT22;3309;48.708;9.290;2023-12-28T13:53:21;9.90;1.00
6552;DHT22;3309;48.708;9.290;2023-12-28T13:55:46;9.90;1.00
6552;DHT22;3309;48.708;9.290;2023-12-28T13:58:12;9.90;1.00
6552;DHT22;3309;48.708;9.290;2023-12-28T14:00:37;9.90;1.00
6552;DHT22;3309;48.708;9.290;2023-12-28T14:03:04;9.90;1.00
6552;DHT22;3309;48.708;9.290;2023-12-28T14:05:30;9.90;1.00
6552;DHT22;3309;48.708;9.290;2023-12-28T14:07:57;9.80;1.00
6552;DHT22;3309;48.708;9.290;2023-12-28T14:10:22;9.80;1.00
6552;DHT22;3309;48.708;9.290;2023-12-28T14:12:48;9.80;1.00
6552;DHT22;3309;48.708;9.290;2023-12-28T14:15:14;9.80;1.00
6552;DHT22;3309;48.708;9.290;2023-12-28T14:17:41;9.70;1.00
6552;DHT22;3309;48.708;9.290;2023-12-28T14:20:07;9.70;1.00
6552;DHT22;3309;48.708;9.290;2023-12-28T14:22:37;9.60;1.00
6552;DHT22;3309;48.708;9.290;2023-12-28T14:25:05;9.60;1.00
6552;DHT22;3309;48.708;9.290;2023-12-28T14:27:31;9.60;1.00
6552;DHT22;3309;48.708;9.290;2023-12-28T14:29:57;9.60;1.00
6552;DHT22;3309;48.708;9.290;2023-12-28T14:32:23;9.60;1.00
6552;DHT22;3309;48.708;9.290;2023-12-28T14:34:49;9.60;1.00
6552;DHT22;3309;48.708;9.290;2023-12-28T14:37:14;9.60;1.00
6552;DHT22;3309;48.708;9.290;2023-12-28T14:39:40;9.60;1.00
6552;DHT22;3309;48.708;9.290;2023-12-28T14:42:06;9.50;1.00
6552;DHT22;3309;48.708;9.290;2023-12-28T14:44:31;9.50;1.00
6552;DHT22;3309;48.708;9.290;2023-12-28T14:46:57;9.60;1.00
6552;DHT22;3309;48.708;9.290;2023-12-28T14:49:22;9.60;1.00
6552;DHT22;3309;48.708;9.290;2023-12-28T14:51:48;9.50;1.00
6552;DHT22;3309;48.708;9.290;2023-12-28T14:54:14;9.40;19.00
6552;DHT22;3309;48.708;9.290;2023-12-28T14:56:39;9.50;16.00
6552;DHT22;3309;48.708;9.290;2023-12-28T14:59:05;9.40;20.90
6552;DHT22;3309;48.708;9.290;2023-12-28T15:01:30;9.50;53.50
6552;DHT22;3309;48.708;9.290;2023-12-28T15:03:56;9.30;54.10
6552;DHT22;3309;48.708;9.290;2023-12-28T15:06:21;9.30;57.30
6552;DHT22;3309;48.708;9.290;2023-12-28T15:08:47;9.30;73.30
6552;DHT22;3309;48.708;9.290;2023-12-28T15:11:13;9.30;83.50
6552;DHT22;3309;48.708;9.290;2023-12-28T15:13:39;9.30;67.70
6552;DHT22;3309;48.708;9.290;2023-12-28T15:16:05;9.30;78.30
6552;DHT22;3309;48.708;9.290;2023-12-28T15:18:31;9.20;89.60
6552;DHT22;3309;48.708;9.290;2023-12-28T15:20:57;9.20;99.90
6552;DHT22;3309;48.708;9.290;2023-12-28T15:23:23;9.10;99.90
6552;DHT22;3309;48.708;9.290;2023-12-28T15:25:49;9.10;99.90
6552;DHT22;3309;48.708;9.290;2023-12-28T15:28:15;9.10;99.90
6552;DHT22;3309;48.708;9.290;2023-12-28T15:30:40;9.10;99.90
6552;DHT22;3309;48.708;9.290;2023-12-28T15:33:06;9.00;99.90
6552;DHT22;3309;48.708;9.290;2023-12-28T15:35:32;9.00;99.90
6552;DHT22;3309;48.708;9.290;2023-12-28T15:37:57;9.00;99.90
6552;DHT22;3309;48.708;9.290;2023-12-28T15:40:23;9.00;99.90
6552;DHT22;3309;48.708;9.290;2023-12-28T15:42:50;9.00;97.30
6552;DHT22;3309;48.708;9.290;2023-12-28T15:45:16;9.00;96.60
6552;DHT22;3309;48.708;9.290;2023-12-28T15:47:41;9.10;74.60
6552;DHT22;3309;48.708;9.290;2023-12-28T15:50:07;9.20;59.80
6552;DHT22;3309;48.708;9.290;2023-12-28T15:52:33;9.10;55.50
6552;DHT22;3309;48.708;9.290;2023-12-28T15:54:58;9.20;39.20
6552;DHT22;3309;48.708;9.290;2023-12-28T15:57:24;9.20;41.00
6552;DHT22;3309;48.708;9.290;2023-12-28T15:59:50;9.20;34.70
6552;DHT22;3309;48.708;9.290;2023-12-28T16:02:26;9.10;37.60
6552;DHT22;3309;48.708;9.290;2023-12-28T16:04:52;9.20;24.10
6552;DHT22;3309;48.708;9.290;2023-12-28T16:07:18;9.10;27.10
6552;DHT22;3309;48.708;9.290;2023-12-28T16:09:43;9.10;31.20
6552;DHT22;3309;48.708;9.290;2023-12-28T16:12:09;9.10;27.80
6552;DHT22;3309;48.708;9.290;2023-12-28T16:14:35;9.20;9.10
6552;DHT22;3309;48.708;9.290;2023-12-28T16:17:02;9.10;26.80
6552;DHT22;3309;48.708;9.290;2023-12-28T16:19:28;9.00;48.70
6552;DHT22;3309;48.708;9.290;2023-12-28T16:21:54;9.00;45.40
6552;DHT22;3309;48.708;9.290;2023-12-28T16:24:19;9.00;61.30
6552;DHT22;3309;48.708;9.290;2023-12-28T16:26:45;9.00;60.00
6552;DHT22;3309;48.708;9.290;2023-12-28T16:29:11;9.00;43.50
6552;DHT22;3309;48.708;9.290;2023-12-28T16:31:36;9.00;42.50